Time;durP1;ratioP1;P1;durP2;ratioP2;P2;SDS_P1;SDS_P2;PMS_P1;PMS_P2;Temp;Humidity;BMP_temperature;BMP_pressure;BME280_temperature;BME280_humidity;BME280_pressure;Samples;Min_cycle;Max_cycle;Signal;HPM_P1;HPM_P2
2023/06/16 00:00:19;;;;;;;4.25;3.03;;;19.90;60.50;;;;;;2098020;28;20029;-71
2023/06/16 00:01:23;;;;;;;3.80;2.70;;;19.90;60.70;;;;;;2099021;28;20047;-71
2023/06/16 00:02:23;;;;;;;2.70;2.50;;;19.90;60.50;;;;;;2099668;28;20031;-71
2023/06/16 00:03:24;;;;;;;3.17;2.80;;;19.90;60.30;;;;;;2099669;28;20674;-71
2023/06/16 00:04:27;;;;;;;3.78;3.15;;;19.80;60.90;;;;;;2098970;28;20089;-71
2023/06/16 00:05:28;;;;;;;4.45;2.72;;;19.80;61.40;;;;;;2099866;28;20024;-71
2023/06/16 00:06:31;;;;;;;4.30;3.22;;;19.80;61.40;;;;;;2100546;28;20020;-71
2023/06/16 00:07:33;;;;;;;4.22;2.85;;;19.80;61.30;;;;;;2098785;28;20029;-71
2023/06/16 00:08:35;;;;;;;3.65;2.92;;;19.80;61.50;;;;;;2100060;28;20026;-71
2023/06/16 00:09:35;;;;;;;3.75;2.72;;;19.70;60.60;;;;;;2100151;28;20475;-71
2023/06/16 00:10:36;;;;;;;5.13;2.72;;;19.70;60.80;;;;;;2097994;28;20590;-71
2023/06/16 00:11:36;;;;;;;4.03;2.72;;;19.70;60.80;;;;;;2098516;28;20021;-71
2023/06/16 00:12:38;;;;;;;3.35;3.05;;;19.60;60.90;;;;;;2100056;28;20030;-71
2023/06/16 00:13:38;;;;;;;4.93;2.90;;;19.70;61.20;;;;;;2099823;28;20077;-71
2023/06/16 00:14:39;;;;;;;4.55;2.97;;;19.60;61.70;;;;;;2099512;28;20027;-71
2023/06/16 00:15:40;;;;;;;5.20;3.38;;;19.60;61.70;;;;;;2098157;28;20028;-71
2023/06/16 00:16:41;;;;;;;6.32;3.03;;;19.60;61.60;;;;;;2098726;28;20504;-71
2023/06/16 00:17:46;;;;;;;5.25;3.10;;;19.50;62.00;;;;;;2099162;28;20886;-71
2023/06/16 00:18:51;;;;;;;6.15;3.33;;;19.50;61.40;;;;;;2100230;28;20020;-71
2023/06/16 00:19:57;;;;;;;3.05;2.75;;;19.50;61.80;;;;;;2099065;28;20676;-71
2023/06/16 00:21:02;;;;;;;3.17;2.90;;;19.50;62.30;;;;;;2098860;28;20036;-71
2023/06/16 00:22:03;;;;;;;5.03;2.72;;;19.50;61.50;;;;;;2098335;28;20034;-71
2023/06/16 00:23:07;;;;;;;4.78;3.25;;;19.40;62.00;;;;;;2098538;28;20411;-71
2023/06/16 00:24:08;;;;;;;4.30;2.80;;;19.40;62.60;;;;;;2098130;28;20048;-71
2023/06/16 00:25:09;;;;;;;3.17;2.90;;;19.40;62.80;;;;;;2098177;28;20385;-71
2023/06/16 00:26:09;;;;;;;8.55;3.20;;;19.30;63.20;;;;;;2099914;28;20112;-71
2023/06/16 00:27:11;;;;;;;4.85;3.25;;;19.30;62.70;;;;;;2097677;28;20070;-71
2023/06/16 00:28:11;;;;;;;5.45;3.08;;;19.30;63.30;;;;;;2097694;28;20103;-71
2023/06/16 00:29:12;;;;;;;3.72;2.92;;;19.30;63.10;;;;;;2098530;28;20082;-71
2023/06/16 00:30:13;;;;;;;5.20;2.78;;;19.30;63.30;;;;;;2098475;28;20420;-71
2023/06/16 00:31:14;;;;;;;3.67;2.55;;;19.20;62.70;;;;;;2098461;28;20031;-71
2023/06/16 00:32:15;;;;;;;4.20;2.97;;;19.20;61.90;;;;;;2098299;28;20535;-71
2023/06/16 00:33:17;;;;;;;3.13;2.75;;;19.20;61.90;;;;;;2098086;28;20931;-71
2023/06/16 00:34:17;;;;;;;5.10;3.25;;;19.10;62.50;;;;;;2097527;28;20027;-71
2023/06/16 00:35:18;;;;;;;4.90;3.20;;;19.10;62.80;;;;;;2098542;28;20020;-71
2023/06/16 00:36:18;;;;;;;3.90;3.10;;;19.10;62.90;;;;;;2099621;28;20704;-71
2023/06/16 00:37:19;;;;;;;3.42;2.70;;;19.10;62.80;;;;;;2097445;28;20029;-71
2023/06/16 00:38:19;;;;;;;5.60;2.80;;;19.10;63.50;;;;;;2098933;28;20024;-71
2023/06/16 00:39:20;;;;;;;6.53;3.10;;;19.00;63.20;;;;;;2098610;28;20392;-71
2023/06/16 00:40:20;;;;;;;2.63;2.42;;;19.00;63.20;;;;;;2096782;28;20058;-71
2023/06/16 00:41:21;;;;;;;3.35;2.80;;;19.00;63.40;;;;;;2098385;28;20024;-71
2023/06/16 00:42:22;;;;;;;3.42;2.90;;;19.00;63.90;;;;;;2098145;28;20077;-71
2023/06/16 00:43:22;;;;;;;3.38;3.08;;;18.90;63.60;;;;;;2097452;28;20109;-71
2023/06/16 00:44:23;;;;;;;3.10;2.80;;;18.90;64.00;;;;;;2098936;28;20672;-71
2023/06/16 00:45:24;;;;;;;3.60;2.97;;;18.90;64.20;;;;;;2097759;28;20437;-71
2023/06/16 00:46:27;;;;;;;4.18;3.03;;;18.90;64.20;;;;;;2097552;28;20029;-71
2023/06/16 00:47:28;;;;;;;3.75;2.92;;;18.90;63.80;;;;;;2099020;28;20021;-71
2023/06/16 00:48:29;;;;;;;4.70;3.00;;;18.80;63.50;;;;;;2097293;28;20024;-71
2023/06/16 00:49:29;;;;;;;3.17;2.80;;;18.80;63.20;;;;;;2097140;28;20016;-71
2023/06/16 00:50:31;;;;;;;4.68;2.80;;;18.80;63.90;;;;;;2098662;28;20115;-71
2023/06/16 00:51:32;;;;;;;4.10;2.95;;;18.80;64.30;;;;;;2097613;28;20020;-71
2023/06/16 00:52:37;;;;;;;2.58;2.30;;;18.70;63.90;;;;;;2096922;28;20048;-71
2023/06/16 00:53:39;;;;;;;5.93;3.03;;;18.70;63.80;;;;;;2101518;28;20047;-71
2023/06/16 00:54:40;;;;;;;4.15;2.55;;;18.70;64.10;;;;;;2101619;28;20644;-71
2023/06/16 00:55:41;;;;;;;3.92;2.90;;;18.70;63.80;;;;;;2100034;28;20035;-71
2023/06/16 00:56:43;;;;;;;3.03;2.60;;;18.70;64.50;;;;;;2098214;28;20519;-71
2023/06/16 00:57:44;;;;;;;2.90;2.60;;;18.60;63.40;;;;;;2097261;28;20081;-71
2023/06/16 00:58:45;;;;;;;5.03;2.88;;;18.60;64.30;;;;;;2100255;28;20028;-71
2023/06/16 00:59:46;;;;;;;3.90;2.95;;;18.60;63.90;;;;;;2097917;28;20020;-71
2023/06/16 01:00:46;;;;;;;4.55;2.80;;;18.60;64.60;;;;;;2098678;28;20039;-71
2023/06/16 01:01:48;;;;;;;2.60;2.40;;;18.60;65.10;;;;;;2099227;28;20531;-71
2023/06/16 01:02:50;;;;;;;5.93;3.13;;;18.60;64.30;;;;;;2099349;28;20112;-71
2023/06/16 01:03:53;;;;;;;4.18;2.70;;;18.60;64.60;;;;;;2098242;28;20021;-71
2023/06/16 01:04:54;;;;;;;3.08;2.78;;;18.50;65.20;;;;;;2098627;28;20025;-71
2023/06/16 01:06:00;;;;;;;5.10;2.50;;;18.50;65.00;;;;;;2101301;28;20057;-71
2023/06/16 01:07:09;;;;;;;3.85;3.05;;;18.50;64.70;;;;;;2100613;28;20031;-71
2023/06/16 01:08:36;;;;;;;3.30;2.97;;;18.50;64.20;;;;;;2100508;28;20024;-71
2023/06/16 01:09:52;;;;;;;4.93;3.13;;;18.40;65.10;;;;;;2099535;28;20066;-71
2023/06/16 01:11:06;;;;;;;4.18;2.85;;;18.40;65.60;;;;;;2100613;28;20024;-71
2023/06/16 01:12:24;;;;;;;6.60;3.08;;;18.40;65.20;;;;;;2100559;28;20061;-71
2023/06/16 01:13:46;;;;;;;4.65;3.53;;;18.30;65.80;;;;;;2102013;28;20032;-71
2023/06/16 01:15:04;;;;;;;4.78;3.20;;;18.30;65.80;;;;;;2099566;28;20024;-71
2023/06/16 01:16:08;;;;;;;3.28;2.95;;;18.20;66.00;;;;;;2098358;28;20093;-71
2023/06/16 01:17:10;;;;;;;3.00;2.80;;;18.20;66.50;;;;;;2100509;28;20024;-71
2023/06/16 01:18:17;;;;;;;3.33;2.95;;;18.20;66.80;;;;;;2099813;28;20024;-71
2023/06/16 01:19:37;;;;;;;3.65;3.10;;;18.20;67.10;;;;;;2101820;28;20152;-71
2023/06/16 01:20:57;;;;;;;4.35;3.03;;;18.20;67.50;;;;;;2099891;28;20206;-71
2023/06/16 01:22:11;;;;;;;;;;;18.10;67.20;;;;;;2100319;28;20145;-71
2023/06/16 01:23:26;;;;;;;3.40;2.75;;;18.00;68.20;;;;;;2100466;28;19912;-71
2023/06/16 01:24:28;;;;;;;5.38;3.10;;;18.00;67.80;;;;;;2100577;28;20016;-71
2023/06/16 01:25:31;;;;;;;3.88;3.10;;;18.00;67.90;;;;;;2098947;28;20024;-71
2023/06/16 01:26:34;;;;;;;3.10;2.80;;;18.00;68.40;;;;;;2098688;28;20017;-71
2023/06/16 01:27:37;;;;;;;4.18;3.10;;;17.90;68.00;;;;;;2102199;28;20029;-71
2023/06/16 01:28:41;;;;;;;5.70;3.00;;;17.90;68.90;;;;;;2099517;28;20027;-71
2023/06/16 01:29:43;;;;;;;3.42;2.88;;;17.90;69.30;;;;;;2098839;28;20626;-71
2023/06/16 01:30:44;;;;;;;3.00;2.80;;;17.90;68.90;;;;;;2100849;28;20103;-71
2023/06/16 01:31:46;;;;;;;3.92;2.78;;;17.90;69.30;;;;;;2099355;28;20025;-71
2023/06/16 01:32:51;;;;;;;3.30;3.00;;;17.90;69.40;;;;;;2101211;28;20015;-71
2023/06/16 01:33:52;;;;;;;3.13;2.85;;;17.90;69.50;;;;;;2100780;28;20024;-71
2023/06/16 01:34:54;;;;;;;3.08;2.63;;;17.80;69.10;;;;;;2100355;28;20020;-71
2023/06/16 01:35:55;;;;;;;3.67;2.75;;;17.80;69.40;;;;;;2099326;28;20146;-71
2023/06/16 01:36:57;;;;;;;3.47;3.13;;;17.80;70.00;;;;;;2100746;28;20028;-71
2023/06/16 01:37:58;;;;;;;4.53;3.45;;;17.80;69.90;;;;;;2100813;28;20020;-71
2023/06/16 01:39:00;;;;;;;3.50;3.20;;;17.80;70.10;;;;;;2100746;28;20029;-71
2023/06/16 01:40:01;;;;;;;4.70;3.10;;;17.80;70.40;;;;;;2100871;28;20028;-71
2023/06/16 01:41:02;;;;;;;3.00;2.80;;;17.80;70.70;;;;;;2100611;28;20067;-71
2023/06/16 01:42:02;;;;;;;7.97;3.60;;;17.80;70.50;;;;;;2102392;28;20059;-71
2023/06/16 01:43:04;;;;;;;4.05;3.35;;;17.80;70.90;;;;;;2100437;28;20035;-71
2023/06/16 01:44:06;;;;;;;7.68;3.60;;;17.70;70.90;;;;;;2099556;28;20111;-71
2023/06/16 01:45:07;;;;;;;5.25;2.78;;;17.70;71.30;;;;;;2098824;28;20102;-71
2023/06/16 01:46:08;;;;;;;4.45;3.00;;;17.70;71.30;;;;;;2098771;28;20496;-71
2023/06/16 01:47:09;;;;;;;3.00;2.78;;;17.70;71.80;;;;;;2100919;28;20097;-71
2023/06/16 01:48:10;;;;;;;4.60;3.08;;;17.70;72.00;;;;;;2100087;28;20016;-71
2023/06/16 01:49:11;;;;;;;3.33;3.00;;;17.60;72.30;;;;;;2100132;28;20449;-71
2023/06/16 01:50:12;;;;;;;3.35;2.88;;;17.60;72.40;;;;;;2100210;28;20039;-71
2023/06/16 01:51:14;;;;;;;4.10;3.17;;;17.60;72.50;;;;;;2102200;28;20066;-71
2023/06/16 01:52:15;;;;;;;4.22;3.17;;;17.60;72.80;;;;;;2099565;28;20020;-71
2023/06/16 01:53:16;;;;;;;4.50;2.88;;;17.60;73.00;;;;;;2101682;28;20024;-71
2023/06/16 01:54:16;;;;;;;3.45;2.95;;;17.60;73.70;;;;;;2099104;28;20028;-71
2023/06/16 01:55:17;;;;;;;3.90;2.75;;;17.50;73.60;;;;;;2100955;28;21048;-71
2023/06/16 01:56:18;;;;;;;4.75;3.30;;;17.60;73.70;;;;;;2096928;28;20028;-71
2023/06/16 01:57:18;;;;;;;3.90;2.80;;;17.50;74.00;;;;;;2098858;28;20020;-71
2023/06/16 01:58:22;;;;;;;3.22;2.90;;;17.50;74.10;;;;;;2100274;28;20036;-71
2023/06/16 01:59:22;;;;;;;3.22;2.83;;;17.50;74.60;;;;;;2099230;28;20027;-71
2023/06/16 02:00:29;;;;;;;4.20;3.28;;;17.50;74.30;;;;;;2100313;28;20118;-71
2023/06/16 02:01:35;;;;;;;4.15;3.10;;;17.50;74.80;;;;;;2096606;28;20024;-71
2023/06/16 02:02:40;;;;;;;3.17;2.88;;;17.50;75.40;;;;;;2100212;28;20074;-71
2023/06/16 02:03:46;;;;;;;3.85;3.05;;;17.50;75.60;;;;;;2098743;28;20024;-71
2023/06/16 02:04:50;;;;;;;4.30;3.30;;;17.50;75.70;;;;;;2100187;28;20468;-71
2023/06/16 02:05:52;;;;;;;3.75;3.25;;;17.40;75.60;;;;;;2099902;28;20083;-71
2023/06/16 02:07:07;;;;;;;3.33;3.03;;;17.50;75.40;;;;;;2101251;28;20476;-71
2023/06/16 02:08:09;;;;;;;3.67;2.83;;;17.40;76.30;;;;;;2099579;28;20020;-71
2023/06/16 02:09:13;;;;;;;3.20;2.90;;;17.40;75.90;;;;;;2100259;28;20016;-71
2023/06/16 02:10:14;;;;;;;4.53;3.22;;;17.40;76.70;;;;;;2097921;28;20024;-71
2023/06/16 02:11:15;;;;;;;4.10;3.42;;;17.40;76.90;;;;;;2099016;28;20099;-71
2023/06/16 02:12:16;;;;;;;3.40;2.90;;;17.40;77.40;;;;;;2099138;28;20017;-71
2023/06/16 02:13:17;;;;;;;4.57;2.88;;;17.40;77.40;;;;;;2099570;28;20097;-71
2023/06/16 02:14:18;;;;;;;3.70;2.95;;;17.40;78.00;;;;;;2101269;28;20450;-71
2023/06/16 02:15:20;;;;;;;3.13;2.92;;;17.40;77.40;;;;;;2099345;28;20047;-71
2023/06/16 02:16:20;;;;;;;3.35;2.92;;;17.40;76.60;;;;;;2097755;28;20028;-71
2023/06/16 02:17:27;;;;;;;4.88;3.30;;;17.40;76.70;;;;;;2100132;28;20086;-70
2023/06/16 02:18:27;;;;;;;3.78;2.40;;;17.40;77.40;;;;;;2100003;28;20028;-70
2023/06/16 02:19:28;;;;;;;3.83;3.00;;;17.30;77.00;;;;;;2098968;28;20541;-70
2023/06/16 02:20:28;;;;;;;3.80;3.50;;;17.40;77.40;;;;;;2098956;28;20551;-70
2023/06/16 02:21:29;;;;;;;5.20;3.38;;;17.40;77.30;;;;;;2097893;28;20401;-70
2023/06/16 02:22:30;;;;;;;3.42;3.03;;;17.40;77.10;;;;;;2100667;28;20024;-70
2023/06/16 02:23:30;;;;;;;3.75;3.05;;;17.30;77.00;;;;;;2099071;28;20032;-71
2023/06/16 02:24:31;;;;;;;2.95;2.75;;;17.30;77.00;;;;;;2099616;28;20847;-71
2023/06/16 02:25:32;;;;;;;3.55;3.25;;;17.30;77.80;;;;;;2097623;28;20024;-71
2023/06/16 02:26:33;;;;;;;3.22;2.83;;;17.30;78.00;;;;;;2099907;28;20127;-71
2023/06/16 02:27:33;;;;;;;3.33;3.03;;;17.30;77.70;;;;;;2101573;28;20020;-71
2023/06/16 02:28:34;;;;;;;3.53;2.90;;;17.30;78.10;;;;;;2097817;28;20107;-71
2023/06/16 02:29:35;;;;;;;3.25;2.80;;;17.20;78.40;;;;;;2100373;28;20460;-71
2023/06/16 02:30:35;;;;;;;4.10;3.15;;;17.20;78.60;;;;;;2100094;28;20033;-71
2023/06/16 02:31:36;;;;;;;3.80;3.40;;;17.20;79.00;;;;;;2099834;28;20031;-71
2023/06/16 02:32:37;;;;;;;6.50;3.40;;;17.20;79.10;;;;;;2101673;28;20035;-70
2023/06/16 02:33:40;;;;;;;4.57;3.60;;;17.20;79.00;;;;;;2098915;28;20047;-70
2023/06/16 02:34:43;;;;;;;3.38;2.88;;;17.20;79.10;;;;;;2101221;28;20044;-70
2023/06/16 02:35:43;;;;;;;3.67;3.10;;;17.20;78.40;;;;;;2099941;28;20070;-70
2023/06/16 02:36:44;;;;;;;6.50;3.15;;;17.20;78.60;;;;;;2099797;28;20056;-70
2023/06/16 02:37:51;;;;;;;4.20;3.42;;;17.20;78.60;;;;;;2103022;28;20039;-70
2023/06/16 02:38:52;;;;;;;5.13;3.55;;;17.10;78.80;;;;;;2099833;28;20367;-70
2023/06/16 02:39:53;;;;;;;3.90;3.17;;;17.10;79.10;;;;;;2098361;28;20039;-70
2023/06/16 02:40:53;;;;;;;3.85;3.55;;;17.10;79.40;;;;;;2100023;28;20055;-70
2023/06/16 02:41:54;;;;;;;5.40;3.13;;;17.10;79.50;;;;;;2098751;28;20032;-70
2023/06/16 02:42:54;;;;;;;3.90;3.40;;;17.10;79.70;;;;;;2100329;28;20446;-71
2023/06/16 02:43:55;;;;;;;4.20;3.50;;;17.10;80.00;;;;;;2101605;28;20141;-71
2023/06/16 02:44:56;;;;;;;3.50;3.20;;;17.00;80.80;;;;;;2099143;28;20032;-71
2023/06/16 02:45:56;;;;;;;4.20;3.00;;;17.00;80.60;;;;;;2100576;28;20062;-71
2023/06/16 02:46:57;;;;;;;3.83;2.95;;;17.00;80.90;;;;;;2099458;28;20361;-71
2023/06/16 02:47:58;;;;;;;5.15;3.35;;;17.00;80.40;;;;;;2101659;28;20104;-71
2023/06/16 02:48:59;;;;;;;3.53;3.13;;;17.00;81.30;;;;;;2099538;28;20031;-71
2023/06/16 02:49:59;;;;;;;3.97;3.58;;;17.00;81.30;;;;;;2099695;28;20488;-71
2023/06/16 02:51:00;;;;;;;3.67;3.38;;;17.00;81.80;;;;;;2099627;28;20034;-71
2023/06/16 02:52:00;;;;;;;4.40;3.63;;;16.90;81.40;;;;;;2100429;28;20020;-71
2023/06/16 02:53:01;;;;;;;7.35;3.75;;;16.90;82.00;;;;;;2100543;28;20036;-71
2023/06/16 02:54:02;;;;;;;2.95;2.72;;;16.90;81.70;;;;;;2099093;28;20044;-71
2023/06/16 02:55:05;;;;;;;5.45;2.92;;;16.90;81.30;;;;;;2099025;28;20487;-71
2023/06/16 02:56:07;;;;;;;4.47;3.10;;;16.80;81.30;;;;;;2097829;28;20503;-71
2023/06/16 02:57:07;;;;;;;3.65;3.05;;;16.80;81.70;;;;;;2100605;28;20741;-71
2023/06/16 02:58:08;;;;;;;4.75;2.85;;;16.80;82.20;;;;;;2099867;28;21139;-71
2023/06/16 02:59:10;;;;;;;4.18;3.42;;;16.80;82.30;;;;;;2099040;28;20103;-71
2023/06/16 03:00:11;;;;;;;3.47;3.03;;;16.80;82.70;;;;;;2101671;28;20031;-71
2023/06/16 03:01:14;;;;;;;3.53;3.20;;;16.80;82.40;;;;;;2099471;28;20078;-71
2023/06/16 03:02:14;;;;;;;3.45;3.15;;;16.80;82.60;;;;;;2098217;28;20028;-71
2023/06/16 03:03:16;;;;;;;3.72;3.25;;;16.70;82.90;;;;;;2099499;28;20033;-71
2023/06/16 03:04:17;;;;;;;3.22;3.00;;;16.70;83.10;;;;;;2099641;28;20542;-71
2023/06/16 03:05:18;;;;;;;3.95;3.20;;;16.70;82.90;;;;;;2099453;28;20442;-71
2023/06/16 03:06:19;;;;;;;3.40;3.10;;;16.70;83.10;;;;;;2099101;28;20369;-71
2023/06/16 03:07:20;;;;;;;3.80;3.50;;;16.70;83.40;;;;;;2099450;28;20016;-71
2023/06/16 03:08:21;;;;;;;3.70;3.30;;;16.60;83.70;;;;;;2099565;28;20019;-71
2023/06/16 03:09:21;;;;;;;3.80;3.17;;;16.60;83.50;;;;;;2101556;28;20024;-71
2023/06/16 03:10:22;;;;;;;5.60;3.17;;;16.60;84.20;;;;;;2101801;28;20058;-71
2023/06/16 03:11:22;;;;;;;3.53;3.20;;;16.60;84.60;;;;;;2100741;28;20080;-71
2023/06/16 03:12:23;;;;;;;10.35;3.17;;;16.60;84.00;;;;;;2100697;28;20828;-71
2023/06/16 03:13:23;;;;;;;3.45;3.15;;;16.60;84.80;;;;;;2099560;28;20024;-71
2023/06/16 03:14:25;;;;;;;3.45;3.15;;;16.60;83.20;;;;;;2098958;28;20086;-71
2023/06/16 03:15:27;;;;;;;4.88;3.70;;;16.60;83.70;;;;;;2097932;28;20078;-71
2023/06/16 03:16:28;;;;;;;3.50;3.20;;;16.60;84.90;;;;;;2099661;28;20027;-71
2023/06/16 03:17:28;;;;;;;4.75;3.50;;;16.50;85.90;;;;;;2098179;28;20777;-71
2023/06/16 03:18:29;;;;;;;4.57;3.00;;;16.50;86.40;;;;;;2098543;28;20028;-71
2023/06/16 03:19:29;;;;;;;4.32;3.58;;;16.50;86.60;;;;;;2098542;28;20021;-71
2023/06/16 03:20:30;;;;;;;3.50;3.15;;;16.50;86.00;;;;;;2099990;28;20024;-71
2023/06/16 03:21:30;;;;;;;3.67;3.05;;;16.50;87.00;;;;;;2100790;28;20032;-71
2023/06/16 03:22:31;;;;;;;4.63;3.72;;;16.50;86.90;;;;;;2098720;28;20464;-71
2023/06/16 03:23:31;;;;;;;3.90;3.50;;;16.40;87.40;;;;;;2099048;28;20727;-71
2023/06/16 03:24:33;;;;;;;3.75;3.42;;;16.40;87.40;;;;;;2099526;28;20023;-70
2023/06/16 03:25:35;;;;;;;4.75;3.33;;;16.40;87.40;;;;;;2098746;28;20017;-70
2023/06/16 03:26:36;;;;;;;6.00;3.30;;;16.40;88.10;;;;;;2098372;28;20017;-70
2023/06/16 03:27:40;;;;;;;3.75;3.40;;;16.40;87.40;;;;;;2099920;28;20392;-70
2023/06/16 03:28:41;;;;;;;4.70;3.90;;;16.40;88.10;;;;;;2097297;28;20013;-70
2023/06/16 03:29:42;;;;;;;3.60;3.30;;;16.40;88.80;;;;;;2098635;28;20059;-70
2023/06/16 03:30:44;;;;;;;4.03;3.30;;;16.40;89.60;;;;;;2099500;28;20024;-70
2023/06/16 03:31:44;;;;;;;3.75;3.30;;;16.40;89.60;;;;;;2097592;28;20056;-70
2023/06/16 03:32:45;;;;;;;6.20;3.90;;;16.30;89.70;;;;;;2098400;28;20017;-70
2023/06/16 03:33:46;;;;;;;4.43;3.42;;;16.40;90.40;;;;;;2100186;28;20403;-70
2023/06/16 03:34:48;;;;;;;4.75;3.60;;;16.40;90.40;;;;;;2099006;28;20052;-70
2023/06/16 03:35:48;;;;;;;3.70;3.40;;;16.30;90.40;;;;;;2097126;28;20055;-70
2023/06/16 03:36:49;;;;;;;5.13;3.47;;;16.30;90.60;;;;;;2098704;28;20046;-70
2023/06/16 03:37:50;;;;;;;4.22;3.55;;;16.30;90.50;;;;;;2100339;28;20043;-70
2023/06/16 03:38:50;;;;;;;5.57;3.63;;;16.30;90.50;;;;;;2098561;28;20538;-70
2023/06/16 03:39:51;;;;;;;5.28;3.80;;;16.30;90.90;;;;;;2098971;28;20025;-70
2023/06/16 03:40:51;;;;;;;4.00;3.40;;;16.30;90.80;;;;;;2101480;28;20095;-70
2023/06/16 03:41:52;;;;;;;3.50;3.20;;;16.30;91.00;;;;;;2098493;28;20073;-70
2023/06/16 03:42:53;;;;;;;3.78;3.20;;;16.30;90.80;;;;;;2099619;28;20032;-70
2023/06/16 03:43:53;;;;;;;4.13;3.40;;;16.20;90.40;;;;;;2097976;28;20021;-70
2023/06/16 03:44:54;;;;;;;4.80;3.20;;;16.20;90.30;;;;;;2098505;28;20496;-70
2023/06/16 03:45:55;;;;;;;4.43;3.47;;;16.20;91.20;;;;;;2101361;28;20017;-70
2023/06/16 03:46:55;;;;;;;4.90;3.22;;;16.20;91.30;;;;;;2100163;28;20016;-70
2023/06/16 03:47:56;;;;;;;3.90;3.50;;;16.20;91.70;;;;;;2099995;28;20049;-70
2023/06/16 03:48:57;;;;;;;3.30;3.03;;;16.20;92.10;;;;;;2100264;28;20047;-70
2023/06/16 03:49:58;;;;;;;3.35;3.05;;;16.20;91.30;;;;;;2098619;28;20024;-70
2023/06/16 03:50:59;;;;;;;4.10;3.10;;;16.20;91.90;;;;;;2099703;28;20039;-70
2023/06/16 03:51:59;;;;;;;4.07;3.67;;;16.20;91.90;;;;;;2097621;28;20024;-70
2023/06/16 03:53:00;;;;;;;4.90;3.70;;;16.30;92.30;;;;;;2098911;28;20028;-70
2023/06/16 03:54:01;;;;;;;4.13;3.72;;;16.20;92.60;;;;;;2099614;28;20036;-70
2023/06/16 03:55:01;;;;;;;3.70;3.40;;;16.20;92.70;;;;;;2099887;28;20137;-71
2023/06/16 03:56:02;;;;;;;3.63;3.33;;;16.30;92.50;;;;;;2099158;28;20525;-71
2023/06/16 03:57:03;;;;;;;4.68;3.22;;;16.30;92.60;;;;;;2100588;28;20516;-71
2023/06/16 03:58:03;;;;;;;4.55;3.95;;;16.30;92.20;;;;;;2099124;28;20053;-71
2023/06/16 03:59:04;;;;;;;3.40;3.17;;;16.30;92.70;;;;;;2099574;28;20024;-71
2023/06/16 04:00:08;;;;;;;3.40;3.20;;;16.40;93.20;;;;;;2100091;28;20467;-71
2023/06/16 04:01:09;;;;;;;4.28;3.25;;;16.40;93.30;;;;;;2098430;28;20028;-71
2023/06/16 04:02:09;;;;;;;5.05;3.80;;;16.50;93.90;;;;;;2098920;28;20028;-71
2023/06/16 04:03:11;;;;;;;4.43;3.63;;;16.60;94.10;;;;;;2100597;28;20042;-71
2023/06/16 04:04:12;;;;;;;4.20;3.58;;;16.60;94.10;;;;;;2099361;28;20056;-71
2023/06/16 04:05:13;;;;;;;3.72;3.42;;;16.70;94.00;;;;;;2097245;28;20028;-71
2023/06/16 04:06:13;;;;;;;3.78;3.35;;;16.80;93.50;;;;;;2098087;28;20024;-71
2023/06/16 04:07:14;;;;;;;4.35;3.83;;;16.90;93.20;;;;;;2099321;28;20082;-71
2023/06/16 04:08:14;;;;;;;3.92;3.22;;;17.00;93.90;;;;;;2099209;28;20017;-71
2023/06/16 04:09:15;;;;;;;3.70;3.40;;;17.10;94.10;;;;;;2097882;28;20103;-71
2023/06/16 04:10:16;;;;;;;3.97;3.40;;;17.30;93.70;;;;;;2100244;28;20468;-71
2023/06/16 04:11:16;;;;;;;4.15;3.35;;;17.50;93.20;;;;;;2099399;28;20016;-71
2023/06/16 04:12:17;;;;;;;7.07;3.92;;;17.70;92.40;;;;;;2099021;28;20044;-71
2023/06/16 04:13:17;;;;;;;3.75;3.45;;;17.90;92.20;;;;;;2100487;28;20023;-71
2023/06/16 04:14:18;;;;;;;6.25;3.72;;;18.20;91.90;;;;;;2098890;28;20446;-71
2023/06/16 04:15:19;;;;;;;3.78;3.47;;;18.40;91.30;;;;;;2099480;28;20031;-71
2023/06/16 04:16:19;;;;;;;4.05;3.33;;;18.60;90.40;;;;;;2098672;28;20028;-71
2023/06/16 04:17:20;;;;;;;4.10;3.70;;;18.80;89.50;;;;;;2099046;28;20567;-71
2023/06/16 04:18:21;;;;;;;3.85;3.28;;;19.00;88.70;;;;;;2101129;28;20028;-71
2023/06/16 04:19:22;;;;;;;5.78;3.97;;;19.20;86.80;;;;;;2100248;28;20029;-71
2023/06/16 04:20:22;;;;;;;6.53;3.28;;;19.40;85.60;;;;;;2099205;28;20032;-71
2023/06/16 04:21:23;;;;;;;4.40;3.45;;;19.60;83.80;;;;;;2100813;28;20043;-71
2023/06/16 04:22:23;;;;;;;4.57;3.00;;;19.80;82.50;;;;;;2099774;28;20469;-71
2023/06/16 04:23:24;;;;;;;5.40;3.38;;;19.90;80.90;;;;;;2098454;28;20028;-71
2023/06/16 04:24:24;;;;;;;5.32;2.90;;;20.00;80.40;;;;;;2097701;28;20078;-71
2023/06/16 04:25:26;;;;;;;3.38;3.05;;;20.20;79.20;;;;;;2097801;28;20028;-71
2023/06/16 04:26:28;;;;;;;4.30;3.40;;;20.20;78.90;;;;;;2099199;28;20031;-71
2023/06/16 04:27:32;;;;;;;3.83;3.10;;;20.20;79.00;;;;;;2098330;28;20075;-71
2023/06/16 04:28:32;;;;;;;8.80;3.45;;;20.20;79.70;;;;;;2099530;28;20016;-71
2023/06/16 04:29:41;;;;;;;4.07;3.50;;;20.20;80.70;;;;;;2100141;28;20077;-71
2023/06/16 04:30:42;;;;;;;4.45;3.10;;;20.20;81.70;;;;;;2099159;28;20028;-71
2023/06/16 04:31:42;;;;;;;3.30;3.05;;;20.10;81.80;;;;;;2098396;28;20020;-71
2023/06/16 04:32:44;;;;;;;3.38;3.08;;;20.10;80.80;;;;;;2098699;28;20020;-71
2023/06/16 04:33:46;;;;;;;6.07;3.85;;;20.10;81.60;;;;;;2098818;28;20143;-71
2023/06/16 04:34:49;;;;;;;4.13;2.97;;;20.00;82.90;;;;;;2099596;28;20036;-71
2023/06/16 04:35:50;;;;;;;3.88;3.58;;;20.10;83.80;;;;;;2098670;28;20033;-71
2023/06/16 04:36:51;;;;;;;5.18;3.60;;;20.10;84.20;;;;;;2097393;28;20020;-71
2023/06/16 04:37:52;;;;;;;4.10;3.03;;;20.10;84.70;;;;;;2098536;28;20048;-71
2023/06/16 04:38:53;;;;;;;3.58;3.22;;;20.10;85.70;;;;;;2099430;28;20464;-71
2023/06/16 04:39:54;;;;;;;3.72;3.13;;;20.10;86.40;;;;;;2097031;28;20487;-71
2023/06/16 04:40:55;;;;;;;3.60;3.08;;;20.20;86.80;;;;;;2100604;28;20115;-71
2023/06/16 04:41:56;;;;;;;3.10;2.85;;;20.20;87.10;;;;;;2098679;28;20039;-71
2023/06/16 04:42:56;;;;;;;3.75;2.92;;;20.30;86.00;;;;;;2098751;28;20024;-71
2023/06/16 04:43:57;;;;;;;3.35;3.05;;;20.30;87.10;;;;;;2097940;28;20488;-71
2023/06/16 04:44:58;;;;;;;3.50;3.08;;;20.40;87.20;;;;;;2096741;28;20063;-71
2023/06/16 04:45:58;;;;;;;3.70;3.35;;;20.40;87.10;;;;;;2099242;28;20373;-71
2023/06/16 04:46:59;;;;;;;3.85;2.90;;;20.50;84.60;;;;;;2099266;28;20039;-71
2023/06/16 04:47:59;;;;;;;3.60;2.80;;;20.50;84.00;;;;;;2097126;28;20025;-71
2023/06/16 04:49:00;;;;;;;2.92;2.60;;;20.60;83.10;;;;;;2098625;28;20391;-71
2023/06/16 04:50:01;;;;;;;3.28;2.97;;;20.70;84.00;;;;;;2099650;28;20020;-71
2023/06/16 04:51:01;;;;;;;4.15;3.20;;;20.70;84.10;;;;;;2100512;28;20052;-71
2023/06/16 04:52:02;;;;;;;3.55;3.25;;;20.80;83.50;;;;;;2100218;28;20031;-71
2023/06/16 04:53:03;;;;;;;5.13;3.58;;;20.80;83.10;;;;;;2098019;28;20042;-71
2023/06/16 04:54:03;;;;;;;6.18;3.20;;;20.90;82.30;;;;;;2098753;28;20479;-71
2023/06/16 04:55:05;;;;;;;6.20;3.95;;;21.00;81.70;;;;;;2098653;28;20123;-71
2023/06/16 04:56:06;;;;;;;6.05;3.03;;;21.00;79.10;;;;;;2097566;28;20043;-71
2023/06/16 04:57:07;;;;;;;3.83;3.40;;;21.10;79.80;;;;;;2098091;28;20062;-71
2023/06/16 04:58:07;;;;;;;3.85;3.55;;;21.20;79.10;;;;;;2098455;28;20028;-71
2023/06/16 04:59:08;;;;;;;3.60;3.30;;;21.20;77.40;;;;;;2098104;28;20020;-71
2023/06/16 05:00:09;;;;;;;3.70;3.22;;;21.30;77.10;;;;;;2098552;28;20074;-71
2023/06/16 05:01:11;;;;;;;3.78;3.20;;;21.40;78.40;;;;;;2097605;28;20020;-71
2023/06/16 05:02:11;;;;;;;4.53;3.22;;;21.50;76.00;;;;;;2098143;28;20047;-71
2023/06/16 05:03:12;;;;;;;3.45;3.05;;;21.50;75.90;;;;;;2097718;28;20028;-71
2023/06/16 05:04:12;;;;;;;3.38;2.90;;;21.60;76.50;;;;;;2096501;28;20023;-71
2023/06/16 05:05:13;;;;;;;3.97;3.25;;;21.70;75.10;;;;;;2097774;28;20036;-71
2023/06/16 05:06:14;;;;;;;4.65;3.17;;;21.80;75.00;;;;;;2100750;28;20008;-71
2023/06/16 05:07:14;;;;;;;3.50;3.20;;;21.80;74.60;;;;;;2097363;28;20020;-71
2023/06/16 05:08:15;;;;;;;3.90;3.20;;;21.90;74.30;;;;;;2098273;28;20594;-71
2023/06/16 05:09:15;;;;;;;6.22;3.35;;;22.00;73.90;;;;;;2096907;28;20933;-71
2023/06/16 05:10:16;;;;;;;3.97;3.10;;;22.10;73.60;;;;;;2098467;28;20151;-71
2023/06/16 05:11:16;;;;;;;3.55;3.20;;;22.20;73.20;;;;;;2098806;28;20051;-71
2023/06/16 05:12:17;;;;;;;3.33;3.03;;;22.20;72.60;;;;;;2097696;28;20146;-71
2023/06/16 05:13:17;;;;;;;5.93;3.10;;;22.30;72.20;;;;;;2098751;28;20017;-71
2023/06/16 05:14:18;;;;;;;3.58;3.22;;;22.40;69.90;;;;;;2098867;28;20512;-71
2023/06/16 05:15:18;;;;;;;5.10;3.22;;;22.40;68.60;;;;;;2097026;28;20099;-71
2023/06/16 05:16:19;;;;;;;4.43;3.53;;;22.50;68.70;;;;;;2099127;28;20102;-71
2023/06/16 05:17:21;;;;;;;3.88;3.30;;;22.60;67.90;;;;;;2098507;28;20017;-71
2023/06/16 05:18:21;;;;;;;5.78;3.20;;;22.70;66.00;;;;;;2098484;28;20082;-71
2023/06/16 05:19:22;;;;;;;3.83;3.50;;;22.70;65.40;;;;;;2099363;28;20032;-71
2023/06/16 05:20:22;;;;;;;5.05;3.40;;;22.80;65.00;;;;;;2097659;28;20036;-71
2023/06/16 05:21:26;;;;;;;3.35;2.97;;;22.90;65.00;;;;;;2099601;28;20040;-71
2023/06/16 05:22:26;;;;;;;4.80;3.65;;;23.00;64.90;;;;;;2098220;28;20028;-71